sensor_id;sensor_type;location;lat;lon;timestamp;P1;durP1;ratioP1;P2;durP2;ratioP2
28848;SDS011;15981;43.292;-2.888;2022-07-15T00:02:04;30.40;;;22.60;;
28848;SDS011;15981;43.292;-2.888;2022-07-15T00:04:30;29.50;;;23.27;;
28848;SDS011;15981;43.292;-2.888;2022-07-15T00:06:56;29.02;;;23.17;;
28848;SDS011;15981;43.292;-2.888;2022-07-15T00:09:22;30.70;;;23.20;;
28848;SDS011;15981;43.292;-2.888;2022-07-15T00:12:07;30.67;;;22.35;;
28848;SDS011;15981;43.292;-2.888;2022-07-15T00:14:33;28.67;;;22.73;;
28848;SDS011;15981;43.292;-2.888;2022-07-15T00:16:59;32.97;;;23.65;;
28848;SDS011;15981;43.292;-2.888;2022-07-15T00:19:25;31.38;;;23.10;;
28848;SDS011;15981;43.292;-2.888;2022-07-15T00:21:50;30.05;;;23.45;;
28848;SDS011;15981;43.292;-2.888;2022-07-15T00:24:16;31.00;;;22.35;;
28848;SDS011;15981;43.292;-2.888;2022-07-15T00:26:42;31.75;;;23.48;;
28848;SDS011;15981;43.292;-2.888;2022-07-15T00:29:07;31.13;;;23.02;;
28848;SDS011;15981;43.292;-2.888;2022-07-15T00:31:33;31.15;;;23.27;;
28848;SDS011;15981;43.292;-2.888;2022-07-15T00:33:59;30.58;;;23.70;;
28848;SDS011;15981;43.292;-2.888;2022-07-15T00:36:25;32.40;;;23.90;;
28848;SDS011;15981;43.292;-2.888;2022-07-15T00:38:50;28.58;;;22.73;;
28848;SDS011;15981;43.292;-2.888;2022-07-15T00:41:16;30.30;;;23.38;;
28848;SDS011;15981;43.292;-2.888;2022-07-15T00:43:42;33.70;;;25.33;;
28848;SDS011;15981;43.292;-2.888;2022-07-15T00:46:08;33.63;;;23.55;;
28848;SDS011;15981;43.292;-2.888;2022-07-15T00:48:33;31.20;;;23.75;;
28848;SDS011;15981;43.292;-2.888;2022-07-15T00:50:59;30.67;;;23.98;;
28848;SDS011;15981;43.292;-2.888;2022-07-15T00:53:26;31.35;;;23.98;;
28848;SDS011;15981;43.292;-2.888;2022-07-15T00:55:56;31.83;;;24.52;;
28848;SDS011;15981;43.292;-2.888;2022-07-15T00:58:22;31.27;;;23.38;;
28848;SDS011;15981;43.292;-2.888;2022-07-15T01:00:51;30.17;;;23.75;;
28848;SDS011;15981;43.292;-2.888;2022-07-15T01:03:17;28.95;;;23.13;;
28848;SDS011;15981;43.292;-2.888;2022-07-15T01:05:44;33.60;;;24.13;;
28848;SDS011;15981;43.292;-2.888;2022-07-15T01:08:10;30.25;;;22.88;;
28848;SDS011;15981;43.292;-2.888;2022-07-15T01:10:36;31.88;;;23.77;;
28848;SDS011;15981;43.292;-2.888;2022-07-15T01:13:02;31.88;;;23.70;;
28848;SDS011;15981;43.292;-2.888;2022-07-15T01:15:29;30.48;;;23.90;;
28848;SDS011;15981;43.292;-2.888;2022-07-15T01:17:58;33.00;;;24.50;;
28848;SDS011;15981;43.292;-2.888;2022-07-15T01:20:24;31.95;;;23.80;;
28848;SDS011;15981;43.292;-2.888;2022-07-15T01:22:50;33.00;;;24.23;;
28848;SDS011;15981;43.292;-2.888;2022-07-15T01:25:16;31.92;;;23.92;;
28848;SDS011;15981;43.292;-2.888;2022-07-15T01:27:41;29.65;;;23.08;;
28848;SDS011;15981;43.292;-2.888;2022-07-15T01:30:08;30.23;;;22.85;;
28848;SDS011;15981;43.292;-2.888;2022-07-15T01:32:34;33.05;;;22.25;;
28848;SDS011;15981;43.292;-2.888;2022-07-15T01:35:00;30.50;;;21.92;;
28848;SDS011;15981;43.292;-2.888;2022-07-15T01:37:26;29.15;;;22.88;;
28848;SDS011;15981;43.292;-2.888;2022-07-15T01:39:51;32.72;;;24.65;;
28848;SDS011;15981;43.292;-2.888;2022-07-15T01:42:17;33.55;;;24.10;;
28848;SDS011;15981;43.292;-2.888;2022-07-15T01:44:43;32.10;;;23.85;;
28848;SDS011;15981;43.292;-2.888;2022-07-15T01:47:09;31.85;;;24.15;;
28848;SDS011;15981;43.292;-2.888;2022-07-15T01:49:35;36.58;;;26.27;;
28848;SDS011;15981;43.292;-2.888;2022-07-15T01:52:02;37.25;;;25.63;;
28848;SDS011;15981;43.292;-2.888;2022-07-15T01:54:29;39.05;;;26.52;;
28848;SDS011;15981;43.292;-2.888;2022-07-15T01:56:55;30.10;;;23.55;;
28848;SDS011;15981;43.292;-2.888;2022-07-15T01:59:21;34.20;;;24.42;;
28848;SDS011;15981;43.292;-2.888;2022-07-15T02:01:48;33.17;;;23.02;;
28848;SDS011;15981;43.292;-2.888;2022-07-15T02:04:14;31.05;;;23.25;;
28848;SDS011;15981;43.292;-2.888;2022-07-15T02:06:40;29.48;;;22.23;;
28848;SDS011;15981;43.292;-2.888;2022-07-15T02:09:06;28.67;;;21.10;;
28848;SDS011;15981;43.292;-2.888;2022-07-15T02:11:32;30.15;;;22.35;;
28848;SDS011;15981;43.292;-2.888;2022-07-15T02:13:58;27.35;;;22.33;;
28848;SDS011;15981;43.292;-2.888;2022-07-15T02:16:25;28.50;;;21.92;;
28848;SDS011;15981;43.292;-2.888;2022-07-15T02:18:51;28.13;;;21.70;;
28848;SDS011;15981;43.292;-2.888;2022-07-15T02:21:16;30.95;;;22.02;;
28848;SDS011;15981;43.292;-2.888;2022-07-15T02:23:42;29.17;;;21.50;;
28848;SDS011;15981;43.292;-2.888;2022-07-15T02:26:08;30.92;;;21.73;;
28848;SDS011;15981;43.292;-2.888;2022-07-15T02:28:33;25.70;;;21.20;;
28848;SDS011;15981;43.292;-2.888;2022-07-15T02:30:59;28.92;;;22.52;;
28848;SDS011;15981;43.292;-2.888;2022-07-15T02:33:25;28.73;;;20.38;;
28848;SDS011;15981;43.292;-2.888;2022-07-15T02:35:51;30.90;;;21.80;;
28848;SDS011;15981;43.292;-2.888;2022-07-15T02:38:17;26.83;;;21.95;;
28848;SDS011;15981;43.292;-2.888;2022-07-15T02:40:43;25.73;;;20.48;;
28848;SDS011;15981;43.292;-2.888;2022-07-15T02:43:09;29.10;;;21.38;;
28848;SDS011;15981;43.292;-2.888;2022-07-15T02:45:35;29.05;;;22.20;;
28848;SDS011;15981;43.292;-2.888;2022-07-15T02:48:01;29.95;;;22.60;;
28848;SDS011;15981;43.292;-2.888;2022-07-15T02:50:28;30.30;;;22.67;;
28848;SDS011;15981;43.292;-2.888;2022-07-15T02:52:53;29.30;;;22.67;;
28848;SDS011;15981;43.292;-2.888;2022-07-15T02:55:19;30.80;;;21.85;;
28848;SDS011;15981;43.292;-2.888;2022-07-15T02:57:45;28.15;;;22.15;;
28848;SDS011;15981;43.292;-2.888;2022-07-15T03:00:13;27.15;;;22.83;;
28848;SDS011;15981;43.292;-2.888;2022-07-15T03:02:39;31.45;;;23.38;;
28848;SDS011;15981;43.292;-2.888;2022-07-15T03:05:05;31.38;;;22.77;;
28848;SDS011;15981;43.292;-2.888;2022-07-15T03:07:31;30.08;;;23.85;;
28848;SDS011;15981;43.292;-2.888;2022-07-15T03:09:58;30.90;;;23.40;;
28848;SDS011;15981;43.292;-2.888;2022-07-15T03:12:23;32.97;;;23.60;;
28848;SDS011;15981;43.292;-2.888;2022-07-15T03:14:49;34.05;;;23.48;;
28848;SDS011;15981;43.292;-2.888;2022-07-15T03:17:15;32.53;;;24.35;;
28848;SDS011;15981;43.292;-2.888;2022-07-15T03:19:41;31.42;;;23.00;;
28848;SDS011;15981;43.292;-2.888;2022-07-15T03:22:07;30.95;;;24.10;;
28848;SDS011;15981;43.292;-2.888;2022-07-15T03:24:33;30.88;;;23.13;;
28848;SDS011;15981;43.292;-2.888;2022-07-15T03:26:59;33.00;;;23.83;;
28848;SDS011;15981;43.292;-2.888;2022-07-15T03:29:25;36.00;;;25.10;;
28848;SDS011;15981;43.292;-2.888;2022-07-15T03:31:51;34.22;;;24.90;;
28848;SDS011;15981;43.292;-2.888;2022-07-15T03:34:17;34.63;;;24.90;;
28848;SDS011;15981;43.292;-2.888;2022-07-15T03:36:43;31.35;;;24.15;;
28848;SDS011;15981;43.292;-2.888;2022-07-15T03:39:09;33.38;;;24.70;;
28848;SDS011;15981;43.292;-2.888;2022-07-15T03:41:35;31.52;;;25.13;;
28848;SDS011;15981;43.292;-2.888;2022-07-15T03:44:01;31.35;;;23.95;;
28848;SDS011;15981;43.292;-2.888;2022-07-15T03:46:27;34.97;;;25.08;;
28848;SDS011;15981;43.292;-2.888;2022-07-15T03:48:53;35.72;;;25.20;;
28848;SDS011;15981;43.292;-2.888;2022-07-15T03:51:19;34.55;;;25.42;;
28848;SDS011;15981;43.292;-2.888;2022-07-15T03:53:44;34.33;;;25.35;;
28848;SDS011;15981;43.292;-2.888;2022-07-15T03:56:11;37.60;;;26.33;;
28848;SDS011;15981;43.292;-2.888;2022-07-15T03:58:37;34.88;;;26.23;;
28848;SDS011;15981;43.292;-2.888;2022-07-15T04:01:03;33.45;;;26.35;;
28848;SDS011;15981;43.292;-2.888;2022-07-15T04:03:29;33.67;;;26.50;;
28848;SDS011;15981;43.292;-2.888;2022-07-15T04:05:55;33.80;;;25.55;;
28848;SDS011;15981;43.292;-2.888;2022-07-15T04:08:21;38.53;;;25.98;;
28848;SDS011;15981;43.292;-2.888;2022-07-15T04:10:46;36.25;;;25.77;;
28848;SDS011;15981;43.292;-2.888;2022-07-15T04:13:12;35.65;;;25.85;;
28848;SDS011;15981;43.292;-2.888;2022-07-15T04:15:38;36.92;;;26.67;;
28848;SDS011;15981;43.292;-2.888;2022-07-15T04:18:04;31.92;;;25.40;;
28848;SDS011;15981;43.292;-2.888;2022-07-15T04:20:29;33.38;;;25.00;;
28848;SDS011;15981;43.292;-2.888;2022-07-15T04:22:55;33.55;;;25.52;;
28848;SDS011;15981;43.292;-2.888;2022-07-15T04:25:21;34.78;;;25.73;;
28848;SDS011;15981;43.292;-2.888;2022-07-15T04:27:47;35.28;;;25.85;;
28848;SDS011;15981;43.292;-2.888;2022-07-15T04:30:14;32.78;;;25.80;;
28848;SDS011;15981;43.292;-2.888;2022-07-15T04:32:40;34.20;;;26.80;;
28848;SDS011;15981;43.292;-2.888;2022-07-15T04:35:06;33.83;;;25.48;;
28848;SDS011;15981;43.292;-2.888;2022-07-15T04:37:32;36.65;;;25.88;;
28848;SDS011;15981;43.292;-2.888;2022-07-15T04:39:58;37.25;;;25.30;;
28848;SDS011;15981;43.292;-2.888;2022-07-15T04:42:23;37.42;;;26.17;;
28848;SDS011;15981;43.292;-2.888;2022-07-15T04:44:49;32.45;;;25.50;;
28848;SDS011;15981;43.292;-2.888;2022-07-15T04:47:15;35.78;;;25.90;;
28848;SDS011;15981;43.292;-2.888;2022-07-15T04:49:41;35.47;;;26.85;;
28848;SDS011;15981;43.292;-2.888;2022-07-15T04:52:25;34.22;;;26.60;;
28848;SDS011;15981;43.292;-2.888;2022-07-15T04:54:54;34.45;;;26.02;;
28848;SDS011;15981;43.292;-2.888;2022-07-15T04:57:20;36.47;;;25.92;;
28848;SDS011;15981;43.292;-2.888;2022-07-15T04:59:46;36.10;;;25.88;;
28848;SDS011;15981;43.292;-2.888;2022-07-15T05:02:12;34.63;;;26.05;;
28848;SDS011;15981;43.292;-2.888;2022-07-15T05:04:38;34.58;;;25.92;;
28848;SDS011;15981;43.292;-2.888;2022-07-15T05:07:04;35.92;;;26.60;;
28848;SDS011;15981;43.292;-2.888;2022-07-15T05:09:30;36.95;;;26.73;;
28848;SDS011;15981;43.292;-2.888;2022-07-15T05:11:56;34.58;;;26.80;;
28848;SDS011;15981;43.292;-2.888;2022-07-15T05:14:22;35.08;;;26.20;;
28848;SDS011;15981;43.292;-2.888;2022-07-15T05:16:48;33.90;;;27.13;;
28848;SDS011;15981;43.292;-2.888;2022-07-15T05:19:14;36.65;;;26.77;;
28848;SDS011;15981;43.292;-2.888;2022-07-15T05:21:40;38.70;;;27.08;;
28848;SDS011;15981;43.292;-2.888;2022-07-15T05:24:05;36.28;;;26.10;;
28848;SDS011;15981;43.292;-2.888;2022-07-15T05:26:31;37.50;;;26.98;;
28848;SDS011;15981;43.292;-2.888;2022-07-15T05:28:57;36.97;;;26.63;;
28848;SDS011;15981;43.292;-2.888;2022-07-15T05:31:23;35.88;;;26.70;;
28848;SDS011;15981;43.292;-2.888;2022-07-15T05:33:48;36.63;;;27.60;;
28848;SDS011;15981;43.292;-2.888;2022-07-15T05:36:15;36.22;;;26.58;;
28848;SDS011;15981;43.292;-2.888;2022-07-15T05:38:41;37.30;;;27.23;;
28848;SDS011;15981;43.292;-2.888;2022-07-15T05:41:07;34.85;;;26.75;;
28848;SDS011;15981;43.292;-2.888;2022-07-15T05:43:34;33.85;;;25.25;;
28848;SDS011;15981;43.292;-2.888;2022-07-15T05:46:00;36.63;;;26.73;;
28848;SDS011;15981;43.292;-2.888;2022-07-15T05:48:26;38.83;;;26.85;;
28848;SDS011;15981;43.292;-2.888;2022-07-15T05:50:51;35.78;;;26.98;;
28848;SDS011;15981;43.292;-2.888;2022-07-15T05:53:17;35.67;;;26.67;;
28848;SDS011;15981;43.292;-2.888;2022-07-15T05:55:43;35.22;;;27.67;;
28848;SDS011;15981;43.292;-2.888;2022-07-15T05:58:09;35.67;;;26.38;;
28848;SDS011;15981;43.292;-2.888;2022-07-15T06:00:35;35.42;;;27.05;;
28848;SDS011;15981;43.292;-2.888;2022-07-15T06:03:01;36.28;;;27.65;;
28848;SDS011;15981;43.292;-2.888;2022-07-15T06:05:27;40.03;;;26.83;;
28848;SDS011;15981;43.292;-2.888;2022-07-15T06:07:53;68.95;;;37.60;;
28848;SDS011;15981;43.292;-2.888;2022-07-15T06:10:19;41.00;;;27.17;;
28848;SDS011;15981;43.292;-2.888;2022-07-15T06:12:45;35.30;;;26.70;;
28848;SDS011;15981;43.292;-2.888;2022-07-15T06:15:11;38.58;;;26.92;;
28848;SDS011;15981;43.292;-2.888;2022-07-15T06:17:37;30.77;;;22.60;;
28848;SDS011;15981;43.292;-2.888;2022-07-15T06:20:03;36.67;;;25.67;;
28848;SDS011;15981;43.292;-2.888;2022-07-15T06:22:29;38.63;;;25.25;;
28848;SDS011;15981;43.292;-2.888;2022-07-15T06:24:55;33.90;;;24.48;;
28848;SDS011;15981;43.292;-2.888;2022-07-15T06:27:21;37.00;;;25.83;;
28848;SDS011;15981;43.292;-2.888;2022-07-15T06:29:48;35.60;;;25.27;;
28848;SDS011;15981;43.292;-2.888;2022-07-15T06:32:13;37.42;;;26.50;;
28848;SDS011;15981;43.292;-2.888;2022-07-15T06:34:39;33.55;;;24.88;;
28848;SDS011;15981;43.292;-2.888;2022-07-15T06:37:05;37.53;;;27.33;;
28848;SDS011;15981;43.292;-2.888;2022-07-15T06:39:31;39.33;;;27.00;;
28848;SDS011;15981;43.292;-2.888;2022-07-15T06:41:57;39.38;;;27.95;;
28848;SDS011;15981;43.292;-2.888;2022-07-15T06:44:23;42.88;;;28.20;;
28848;SDS011;15981;43.292;-2.888;2022-07-15T06:46:48;34.35;;;24.65;;
28848;SDS011;15981;43.292;-2.888;2022-07-15T06:49:14;36.17;;;26.95;;
28848;SDS011;15981;43.292;-2.888;2022-07-15T06:51:40;37.60;;;26.77;;
28848;SDS011;15981;43.292;-2.888;2022-07-15T06:54:06;34.45;;;24.20;;
28848;SDS011;15981;43.292;-2.888;2022-07-15T06:56:32;31.83;;;24.27;;
28848;SDS011;15981;43.292;-2.888;2022-07-15T06:58:58;33.42;;;24.77;;
28848;SDS011;15981;43.292;-2.888;2022-07-15T07:01:24;35.33;;;24.55;;
28848;SDS011;15981;43.292;-2.888;2022-07-15T07:03:50;34.95;;;24.80;;
28848;SDS011;15981;43.292;-2.888;2022-07-15T07:06:15;31.65;;;24.33;;
28848;SDS011;15981;43.292;-2.888;2022-07-15T07:08:41;34.95;;;25.20;;
28848;SDS011;15981;43.292;-2.888;2022-07-15T07:11:07;33.92;;;24.27;;
28848;SDS011;15981;43.292;-2.888;2022-07-15T07:13:33;32.80;;;24.10;;
28848;SDS011;15981;43.292;-2.888;2022-07-15T07:15:58;31.70;;;24.27;;
28848;SDS011;15981;43.292;-2.888;2022-07-15T07:18:24;32.50;;;24.60;;
28848;SDS011;15981;43.292;-2.888;2022-07-15T07:20:50;34.20;;;24.60;;
28848;SDS011;15981;43.292;-2.888;2022-07-15T07:23:16;35.38;;;25.10;;
28848;SDS011;15981;43.292;-2.888;2022-07-15T07:25:42;32.28;;;23.27;;
28848;SDS011;15981;43.292;-2.888;2022-07-15T07:28:07;40.25;;;25.73;;
28848;SDS011;15981;43.292;-2.888;2022-07-15T07:30:33;39.63;;;28.40;;
28848;SDS011;15981;43.292;-2.888;2022-07-15T07:32:59;36.08;;;24.42;;
28848;SDS011;15981;43.292;-2.888;2022-07-15T07:35:25;32.80;;;23.27;;
28848;SDS011;15981;43.292;-2.888;2022-07-15T07:37:51;34.25;;;23.40;;
28848;SDS011;15981;43.292;-2.888;2022-07-15T07:40:16;36.42;;;24.35;;
28848;SDS011;15981;43.292;-2.888;2022-07-15T07:42:42;32.17;;;23.05;;
28848;SDS011;15981;43.292;-2.888;2022-07-15T07:45:08;33.83;;;24.23;;
28848;SDS011;15981;43.292;-2.888;2022-07-15T07:47:36;36.53;;;23.42;;
28848;SDS011;15981;43.292;-2.888;2022-07-15T07:50:03;31.02;;;22.42;;
28848;SDS011;15981;43.292;-2.888;2022-07-15T07:52:29;35.17;;;23.33;;
28848;SDS011;15981;43.292;-2.888;2022-07-15T07:54:55;30.67;;;22.65;;
28848;SDS011;15981;43.292;-2.888;2022-07-15T07:57:20;31.40;;;23.38;;
28848;SDS011;15981;43.292;-2.888;2022-07-15T07:59:46;30.48;;;22.60;;
28848;SDS011;15981;43.292;-2.888;2022-07-15T08:02:12;31.55;;;23.30;;
28848;SDS011;15981;43.292;-2.888;2022-07-15T08:04:38;32.67;;;22.42;;
28848;SDS011;15981;43.292;-2.888;2022-07-15T08:07:06;34.88;;;24.33;;
28848;SDS011;15981;43.292;-2.888;2022-07-15T08:09:34;34.33;;;23.23;;
28848;SDS011;15981;43.292;-2.888;2022-07-15T08:12:00;31.20;;;22.08;;
28848;SDS011;15981;43.292;-2.888;2022-07-15T08:14:26;28.42;;;21.75;;
28848;SDS011;15981;43.292;-2.888;2022-07-15T08:16:53;30.38;;;21.25;;
28848;SDS011;15981;43.292;-2.888;2022-07-15T08:19:18;28.25;;;21.33;;
28848;SDS011;15981;43.292;-2.888;2022-07-15T08:21:44;30.02;;;21.65;;
28848;SDS011;15981;43.292;-2.888;2022-07-15T08:24:10;32.65;;;22.10;;
28848;SDS011;15981;43.292;-2.888;2022-07-15T08:26:38;28.88;;;20.92;;
28848;SDS011;15981;43.292;-2.888;2022-07-15T08:29:03;30.80;;;20.73;;
28848;SDS011;15981;43.292;-2.888;2022-07-15T08:31:30;27.92;;;20.83;;
28848;SDS011;15981;43.292;-2.888;2022-07-15T08:33:56;28.67;;;20.88;;
28848;SDS011;15981;43.292;-2.888;2022-07-15T08:36:22;27.67;;;20.15;;
28848;SDS011;15981;43.292;-2.888;2022-07-15T08:38:47;28.50;;;19.63;;
28848;SDS011;15981;43.292;-2.888;2022-07-15T08:41:17;28.70;;;21.20;;
28848;SDS011;15981;43.292;-2.888;2022-07-15T08:43:43;29.20;;;20.63;;
28848;SDS011;15981;43.292;-2.888;2022-07-15T08:46:09;32.28;;;20.85;;
28848;SDS011;15981;43.292;-2.888;2022-07-15T08:48:35;27.88;;;20.92;;
28848;SDS011;15981;43.292;-2.888;2022-07-15T08:51:02;27.05;;;21.00;;
28848;SDS011;15981;43.292;-2.888;2022-07-15T08:53:28;28.15;;;20.60;;
28848;SDS011;15981;43.292;-2.888;2022-07-15T08:55:56;29.90;;;21.70;;
28848;SDS011;15981;43.292;-2.888;2022-07-15T08:58:22;26.60;;;20.10;;
28848;SDS011;15981;43.292;-2.888;2022-07-15T09:00:48;27.05;;;19.65;;
28848;SDS011;15981;43.292;-2.888;2022-07-15T09:03:14;28.60;;;20.02;;
28848;SDS011;15981;43.292;-2.888;2022-07-15T09:05:40;30.83;;;20.90;;
28848;SDS011;15981;43.292;-2.888;2022-07-15T09:08:07;24.08;;;19.17;;
28848;SDS011;15981;43.292;-2.888;2022-07-15T09:13:05;27.65;;;20.52;;
28848;SDS011;15981;43.292;-2.888;2022-07-15T09:15:34;32.95;;;20.65;;
28848;SDS011;15981;43.292;-2.888;2022-07-15T09:20:29;29.95;;;19.73;;
28848;SDS011;15981;43.292;-2.888;2022-07-15T09:22:55;25.58;;;18.42;;
28848;SDS011;15981;43.292;-2.888;2022-07-15T09:25:24;27.92;;;19.60;;
28848;SDS011;15981;43.292;-2.888;2022-07-15T09:27:50;25.33;;;17.85;;
28848;SDS011;15981;43.292;-2.888;2022-07-15T09:33:05;29.77;;;18.67;;
28848;SDS011;15981;43.292;-2.888;2022-07-15T09:35:49;25.20;;;18.10;;
28848;SDS011;15981;43.292;-2.888;2022-07-15T09:38:31;25.92;;;18.23;;
28848;SDS011;15981;43.292;-2.888;2022-07-15T09:40:58;22.35;;;17.23;;
28848;SDS011;15981;43.292;-2.888;2022-07-15T09:43:24;25.27;;;17.60;;
28848;SDS011;15981;43.292;-2.888;2022-07-15T09:45:56;20.60;;;16.23;;
28848;SDS011;15981;43.292;-2.888;2022-07-15T09:48:23;23.80;;;16.65;;
28848;SDS011;15981;43.292;-2.888;2022-07-15T09:50:50;23.48;;;17.70;;
28848;SDS011;15981;43.292;-2.888;2022-07-15T09:53:16;26.77;;;18.20;;
28848;SDS011;15981;43.292;-2.888;2022-07-15T09:55:42;20.35;;;16.25;;
28848;SDS011;15981;43.292;-2.888;2022-07-15T09:58:08;25.20;;;17.27;;
28848;SDS011;15981;43.292;-2.888;2022-07-15T10:00:37;25.55;;;16.52;;
28848;SDS011;15981;43.292;-2.888;2022-07-15T10:03:03;22.90;;;17.25;;
28848;SDS011;15981;43.292;-2.888;2022-07-15T10:05:29;21.10;;;16.88;;
28848;SDS011;15981;43.292;-2.888;2022-07-15T10:07:57;22.90;;;17.10;;
28848;SDS011;15981;43.292;-2.888;2022-07-15T10:10:24;23.00;;;16.88;;
28848;SDS011;15981;43.292;-2.888;2022-07-15T10:15:29;20.17;;;15.80;;
28848;SDS011;15981;43.292;-2.888;2022-07-15T10:18:06;22.63;;;16.33;;
28848;SDS011;15981;43.292;-2.888;2022-07-15T10:23:22;21.25;;;15.65;;
28848;SDS011;15981;43.292;-2.888;2022-07-15T10:28:48;21.10;;;15.95;;
28848;SDS011;15981;43.292;-2.888;2022-07-15T10:31:16;22.42;;;17.10;;
28848;SDS011;15981;43.292;-2.888;2022-07-15T10:33:42;18.27;;;14.60;;
28848;SDS011;15981;43.292;-2.888;2022-07-15T10:36:08;42.50;;;32.58;;
28848;SDS011;15981;43.292;-2.888;2022-07-15T10:38:37;32.75;;;25.13;;
28848;SDS011;15981;43.292;-2.888;2022-07-15T10:41:12;20.98;;;16.88;;
28848;SDS011;15981;43.292;-2.888;2022-07-15T10:43:40;14.52;;;11.80;;
28848;SDS011;15981;43.292;-2.888;2022-07-15T10:48:41;15.18;;;9.82;;
28848;SDS011;15981;43.292;-2.888;2022-07-15T10:51:07;22.17;;;14.52;;
28848;SDS011;15981;43.292;-2.888;2022-07-15T10:53:32;16.92;;;12.65;;
28848;SDS011;15981;43.292;-2.888;2022-07-15T11:01:39;26.77;;;13.73;;
28848;SDS011;15981;43.292;-2.888;2022-07-15T11:04:26;16.15;;;9.95;;
28848;SDS011;15981;43.292;-2.888;2022-07-15T11:12:21;9.23;;;7.15;;
28848;SDS011;15981;43.292;-2.888;2022-07-15T11:14:54;11.50;;;8.68;;
28848;SDS011;15981;43.292;-2.888;2022-07-15T11:17:27;11.02;;;7.95;;
28848;SDS011;15981;43.292;-2.888;2022-07-15T11:20:03;13.07;;;8.70;;
28848;SDS011;15981;43.292;-2.888;2022-07-15T11:22:34;13.85;;;9.65;;
28848;SDS011;15981;43.292;-2.888;2022-07-15T11:25:00;10.77;;;8.48;;
28848;SDS011;15981;43.292;-2.888;2022-07-15T11:27:26;25.02;;;12.68;;
28848;SDS011;15981;43.292;-2.888;2022-07-15T11:29:55;13.02;;;9.07;;
28848;SDS011;15981;43.292;-2.888;2022-07-15T11:32:24;14.15;;;9.25;;
28848;SDS011;15981;43.292;-2.888;2022-07-15T11:34:51;10.23;;;7.45;;
28848;SDS011;15981;43.292;-2.888;2022-07-15T11:37:18;9.25;;;6.90;;
28848;SDS011;15981;43.292;-2.888;2022-07-15T11:39:47;8.00;;;6.88;;
28848;SDS011;15981;43.292;-2.888;2022-07-15T11:42:20;8.93;;;6.95;;
28848;SDS011;15981;43.292;-2.888;2022-07-15T11:45:05;10.80;;;7.40;;
28848;SDS011;15981;43.292;-2.888;2022-07-15T11:47:31;8.82;;;7.20;;
28848;SDS011;15981;43.292;-2.888;2022-07-15T11:50:04;8.27;;;7.32;;
28848;SDS011;15981;43.292;-2.888;2022-07-15T11:52:30;6.05;;;5.43;;
28848;SDS011;15981;43.292;-2.888;2022-07-15T11:54:56;6.80;;;5.85;;
28848;SDS011;15981;43.292;-2.888;2022-07-15T11:57:22;5.47;;;4.50;;
28848;SDS011;15981;43.292;-2.888;2022-07-15T11:59:52;6.68;;;3.83;;
28848;SDS011;15981;43.292;-2.888;2022-07-15T12:02:18;4.95;;;4.05;;
28848;SDS011;15981;43.292;-2.888;2022-07-15T12:04:44;4.72;;;4.13;;
28848;SDS011;15981;43.292;-2.888;2022-07-15T12:07:10;5.30;;;4.22;;
28848;SDS011;15981;43.292;-2.888;2022-07-15T12:09:39;8.02;;;4.65;;
28848;SDS011;15981;43.292;-2.888;2022-07-15T12:12:05;6.68;;;4.30;;
28848;SDS011;15981;43.292;-2.888;2022-07-15T12:14:31;7.05;;;4.78;;
28848;SDS011;15981;43.292;-2.888;2022-07-15T12:16:57;5.47;;;4.68;;
28848;SDS011;15981;43.292;-2.888;2022-07-15T12:19:25;5.68;;;4.72;;
28848;SDS011;15981;43.292;-2.888;2022-07-15T12:21:56;6.43;;;4.88;;
28848;SDS011;15981;43.292;-2.888;2022-07-15T12:24:26;5.95;;;4.90;;
28848;SDS011;15981;43.292;-2.888;2022-07-15T12:29:21;5.20;;;4.43;;
28848;SDS011;15981;43.292;-2.888;2022-07-15T12:34:18;6.68;;;4.85;;
28848;SDS011;15981;43.292;-2.888;2022-07-15T12:36:44;5.15;;;4.65;;
28848;SDS011;15981;43.292;-2.888;2022-07-15T12:39:19;8.27;;;5.70;;
28848;SDS011;15981;43.292;-2.888;2022-07-15T12:41:55;5.68;;;4.75;;
28848;SDS011;15981;43.292;-2.888;2022-07-15T12:44:21;6.70;;;5.20;;
28848;SDS011;15981;43.292;-2.888;2022-07-15T12:49:38;7.30;;;5.90;;
28848;SDS011;15981;43.292;-2.888;2022-07-15T12:54:48;7.18;;;6.47;;
28848;SDS011;15981;43.292;-2.888;2022-07-15T12:57:21;7.45;;;6.22;;
28848;SDS011;15981;43.292;-2.888;2022-07-15T12:59:53;6.35;;;5.63;;
28848;SDS011;15981;43.292;-2.888;2022-07-15T13:02:20;8.15;;;5.95;;
28848;SDS011;15981;43.292;-2.888;2022-07-15T13:04:47;6.70;;;5.07;;
28848;SDS011;15981;43.292;-2.888;2022-07-15T13:07:13;7.03;;;5.88;;
28848;SDS011;15981;43.292;-2.888;2022-07-15T13:09:39;6.50;;;5.50;;
28848;SDS011;15981;43.292;-2.888;2022-07-15T13:12:05;5.95;;;5.28;;
28848;SDS011;15981;43.292;-2.888;2022-07-15T13:14:31;6.57;;;5.88;;
28848;SDS011;15981;43.292;-2.888;2022-07-15T13:16:57;6.22;;;5.63;;
28848;SDS011;15981;43.292;-2.888;2022-07-15T13:19:22;6.57;;;5.88;;
28848;SDS011;15981;43.292;-2.888;2022-07-15T13:21:49;6.53;;;5.75;;
28848;SDS011;15981;43.292;-2.888;2022-07-15T13:24:14;7.47;;;5.82;;
28848;SDS011;15981;43.292;-2.888;2022-07-15T13:26:40;6.13;;;5.53;;
28848;SDS011;15981;43.292;-2.888;2022-07-15T13:29:06;8.68;;;6.32;;
28848;SDS011;15981;43.292;-2.888;2022-07-15T13:31:31;7.97;;;6.15;;
28848;SDS011;15981;43.292;-2.888;2022-07-15T13:33:58;6.55;;;5.70;;
28848;SDS011;15981;43.292;-2.888;2022-07-15T13:36:23;6.30;;;5.30;;
28848;SDS011;15981;43.292;-2.888;2022-07-15T13:38:49;7.53;;;5.90;;
28848;SDS011;15981;43.292;-2.888;2022-07-15T13:41:15;5.75;;;5.25;;
28848;SDS011;15981;43.292;-2.888;2022-07-15T13:43:41;6.10;;;5.25;;
28848;SDS011;15981;43.292;-2.888;2022-07-15T13:46:06;6.68;;;5.03;;
28848;SDS011;15981;43.292;-2.888;2022-07-15T13:48:32;5.43;;;4.93;;
28848;SDS011;15981;43.292;-2.888;2022-07-15T13:50:58;7.00;;;5.50;;
28848;SDS011;15981;43.292;-2.888;2022-07-15T13:53:42;5.88;;;5.03;;
28848;SDS011;15981;43.292;-2.888;2022-07-15T13:56:08;5.38;;;4.78;;
28848;SDS011;15981;43.292;-2.888;2022-07-15T13:58:33;6.50;;;5.15;;
28848;SDS011;15981;43.292;-2.888;2022-07-15T14:00:59;5.63;;;5.00;;
28848;SDS011;15981;43.292;-2.888;2022-07-15T14:03:25;4.97;;;4.47;;
28848;SDS011;15981;43.292;-2.888;2022-07-15T14:05:50;8.32;;;5.80;;
28848;SDS011;15981;43.292;-2.888;2022-07-15T14:08:16;6.18;;;5.38;;
28848;SDS011;15981;43.292;-2.888;2022-07-15T14:10:41;5.82;;;5.18;;
28848;SDS011;15981;43.292;-2.888;2022-07-15T14:13:07;8.82;;;5.78;;
28848;SDS011;15981;43.292;-2.888;2022-07-15T14:15:33;6.28;;;5.15;;
28848;SDS011;15981;43.292;-2.888;2022-07-15T14:17:59;6.90;;;5.13;;
28848;SDS011;15981;43.292;-2.888;2022-07-15T14:20:25;6.70;;;5.55;;
28848;SDS011;15981;43.292;-2.888;2022-07-15T14:22:50;7.35;;;5.50;;
28848;SDS011;15981;43.292;-2.888;2022-07-15T14:25:16;7.28;;;6.20;;
28848;SDS011;15981;43.292;-2.888;2022-07-15T14:27:42;7.25;;;6.18;;
28848;SDS011;15981;43.292;-2.888;2022-07-15T14:30:08;7.45;;;6.22;;
28848;SDS011;15981;43.292;-2.888;2022-07-15T14:32:35;9.93;;;7.70;;
28848;SDS011;15981;43.292;-2.888;2022-07-15T14:35:01;8.30;;;7.05;;
28848;SDS011;15981;43.292;-2.888;2022-07-15T14:37:27;9.98;;;7.68;;
28848;SDS011;15981;43.292;-2.888;2022-07-15T14:39:53;8.77;;;7.55;;
28848;SDS011;15981;43.292;-2.888;2022-07-15T14:42:18;9.65;;;7.72;;
28848;SDS011;15981;43.292;-2.888;2022-07-15T14:44:44;10.93;;;8.57;;
28848;SDS011;15981;43.292;-2.888;2022-07-15T14:47:10;11.23;;;8.70;;
28848;SDS011;15981;43.292;-2.888;2022-07-15T14:49:35;11.35;;;9.90;;
28848;SDS011;15981;43.292;-2.888;2022-07-15T14:52:01;12.15;;;9.50;;